createdAt,value
2023-11-24T00:00:14.599Z,6.4
2023-11-24T00:30:13.872Z,6.3
2023-11-24T01:00:29.905Z,6.4
2023-11-24T01:30:22.836Z,6.4
2023-11-24T02:00:08.862Z,6.2
2023-11-24T02:30:23.590Z,6.3
2023-11-24T03:00:01.267Z,6.5
2023-11-24T04:00:27.085Z,6.6
2023-11-24T04:30:12.711Z,6.8
2023-11-24T05:00:13.219Z,6.9
2023-11-24T05:30:19.984Z,7
2023-11-24T06:00:05.982Z,7.1
2023-11-24T06:30:20.712Z,6.9
2023-11-24T07:00:13.121Z,6.9
2023-11-24T07:30:22.087Z,7
2023-11-24T08:30:24.774Z,6.8
2023-11-24T09:00:01.236Z,6.5
2023-11-24T09:30:17.108Z,6.8
2023-11-24T10:00:01.796Z,6.8
2023-11-24T10:30:17.738Z,6.5
2023-11-24T11:00:10.219Z,6.5
2023-11-24T11:30:26.158Z,6.4
2023-11-24T12:00:10.730Z,6.5
2023-11-24T12:30:11.829Z,6.3
2023-11-24T13:00:22.824Z,6.5
2023-11-24T13:30:23.309Z,6.3
2023-11-24T14:00:16.580Z,6
2023-11-24T14:30:02.456Z,4.9
2023-11-24T15:00:17.794Z,4.9
2023-11-24T15:30:10.089Z,5
2023-11-24T16:00:25.195Z,4.6
2023-11-24T16:30:26.822Z,4.4
2023-11-24T17:00:11.460Z,4.4
2023-11-24T17:30:07.778Z,3.6
2023-11-24T18:00:29.043Z,4
2023-11-24T18:30:13.954Z,3.7
2023-11-24T19:00:30.525Z,3.4
2023-11-24T19:30:07.315Z,3.6
2023-11-24T20:00:22.710Z,3.5
2023-11-24T20:30:23.678Z,3
2023-11-24T21:00:23.940Z,3.3
2023-11-24T21:30:00.887Z,2.9
2023-11-24T22:00:02.797Z,3.3
2023-11-24T22:30:04.718Z,2.7
2023-11-24T23:00:03.080Z,2.7
2023-11-24T23:30:25.454Z,2.8
